createdAt,value
2023-05-04T00:02:01.124Z,101897.44
2023-05-04T00:04:31.203Z,101890.59
2023-05-04T00:07:06.709Z,101899.41
2023-05-04T00:09:39.227Z,101898.47
2023-05-04T00:12:09.770Z,101892.00
2023-05-04T00:14:43.944Z,101903.13
2023-05-04T00:17:14.023Z,101880.38
2023-05-04T00:19:46.146Z,101885.22
2023-05-04T00:22:21.874Z,101889.09
2023-05-04T00:24:52.711Z,101899.19
2023-05-04T00:27:26.956Z,101888.69
2023-05-04T00:29:58.730Z,101899.56
2023-05-04T00:32:28.936Z,101901.63
2023-05-04T00:35:03.339Z,101893.81
2023-05-04T00:37:36.640Z,101886.25
2023-05-04T00:40:07.543Z,101881.19
2023-05-04T00:42:37.938Z,101889.38
2023-05-04T00:45:10.055Z,101884.91
2023-05-04T00:47:40.276Z,101884.19
2023-05-04T00:50:12.078Z,101886.88
2023-05-04T00:52:46.764Z,101884.97
2023-05-04T00:55:20.914Z,101878.69
2023-05-04T00:57:52.047Z,101871.13
2023-05-04T01:00:22.606Z,101867.13
2023-05-04T01:02:53.621Z,101874.63
2023-05-04T01:05:27.209Z,101870.78
2023-05-04T01:08:05.470Z,101866.47
2023-05-04T01:10:46.884Z,101862.50
2023-05-04T01:13:19.186Z,101860.69
2023-05-04T01:15:49.673Z,101862.63
2023-05-04T01:18:23.690Z,101859.53
2023-05-04T01:20:53.784Z,101862.34
2023-05-04T01:23:26.855Z,101871.59
2023-05-04T01:26:03.965Z,101861.88
2023-05-04T01:28:41.865Z,101862.19
2023-05-04T01:31:17.230Z,101864.50
2023-05-04T01:33:50.508Z,101862.13
2023-05-04T01:36:21.705Z,101857.44
2023-05-04T01:39:01.501Z,101857.44
2023-05-04T01:41:31.818Z,101863.84
2023-05-04T01:44:01.920Z,101866.16
2023-05-04T01:46:32.400Z,101860.97
2023-05-04T01:49:15.500Z,101868.47
2023-05-04T01:51:46.971Z,101868.84
2023-05-04T01:54:20.398Z,101864.94
2023-05-04T01:56:52.717Z,101870.97
2023-05-04T01:59:22.786Z,101867.00
2023-05-04T02:02:00.517Z,101869.50
2023-05-04T02:04:30.857Z,101870.50
2023-05-04T02:07:01.103Z,101870.59
2023-05-04T02:09:35.601Z,101867.91
2023-05-04T02:12:06.111Z,101865.53
2023-05-04T02:14:36.213Z,101857.03
2023-05-04T02:17:12.670Z,101865.53
2023-05-04T02:19:42.740Z,101860.31
2023-05-04T02:22:12.865Z,101863.34
2023-05-04T02:24:45.694Z,101843.03
2023-05-04T02:27:15.855Z,101863.13
2023-05-04T02:29:46.216Z,101855.25
2023-05-04T02:32:16.503Z,101859.63
2023-05-04T02:34:46.849Z,101858.53
2023-05-04T02:37:16.825Z,101860.66
2023-05-04T02:39:49.445Z,101866.44
2023-05-04T02:42:19.733Z,101852.56
2023-05-04T02:44:50.136Z,101866.25
2023-05-04T02:47:20.682Z,101862.75
2023-05-04T02:49:52.149Z,101860.44
2023-05-04T02:52:22.427Z,101867.34
2023-05-04T02:54:55.300Z,101860.25
2023-05-04T02:57:26.780Z,101855.75
2023-05-04T02:59:56.943Z,101852.16
2023-05-04T03:02:28.845Z,101851.25
2023-05-04T03:04:58.919Z,101855.88
2023-05-04T03:07:31.096Z,101853.75
2023-05-04T03:10:04.917Z,101850.88
2023-05-04T03:12:35.149Z,101845.69
2023-05-04T03:15:07.318Z,101836.06
2023-05-04T03:17:37.524Z,101846.78
2023-05-04T03:20:10.029Z,101835.06
2023-05-04T03:22:44.455Z,101844.28
2023-05-04T03:25:17.118Z,101805.41
2023-05-04T03:27:57.534Z,101840.69
2023-05-04T03:30:27.717Z,101821.97
2023-05-04T03:33:03.116Z,101842.78
2023-05-04T03:35:33.389Z,101840.06
2023-05-04T03:38:10.714Z,101836.97
2023-05-04T03:40:43.700Z,101835.75
2023-05-04T03:43:17.572Z,101833.56
2023-05-04T03:45:47.814Z,101809.59
2023-05-04T03:48:21.828Z,101829.47
2023-05-04T03:50:54.273Z,101823.59
2023-05-04T03:53:24.476Z,101818.47
2023-05-04T03:55:57.340Z,101814.59
2023-05-04T03:58:34.873Z,101820.69
2023-05-04T04:01:07.540Z,101805.38
2023-05-04T04:03:41.194Z,101814.16
2023-05-04T04:06:13.572Z,101813.50
2023-05-04T04:08:44.743Z,101809.78
2023-05-04T04:11:17.475Z,101806.78
2023-05-04T04:13:47.814Z,101812.38
2023-05-04T04:16:20.812Z,101818.03
2023-05-04T04:18:51.790Z,101814.16
2023-05-04T04:21:21.918Z,101806.53
2023-05-04T04:23:53.861Z,101813.44
2023-05-04T04:26:30.753Z,101814.22
2023-05-04T04:29:00.847Z,101780.13
2023-05-04T04:31:40.481Z,101810.31
2023-05-04T04:34:14.869Z,101806.78
2023-05-04T04:36:45.266Z,101807.16
2023-05-04T04:39:16.861Z,101802.44
2023-05-04T04:41:49.607Z,101807.94
2023-05-04T04:44:20.127Z,101806.19
2023-05-04T04:46:50.138Z,101805.69
2023-05-04T04:49:20.646Z,101806.63
2023-05-04T04:51:53.282Z,101811.38
2023-05-04T04:54:23.285Z,101800.16
2023-05-04T04:56:55.906Z,101806.47
2023-05-04T04:59:28.501Z,101804.53
2023-05-04T05:01:58.781Z,101802.22
2023-05-04T05:04:29.090Z,101805.13
2023-05-04T05:06:59.899Z,101789.97
2023-05-04T05:09:30.066Z,101778.13
2023-05-04T05:12:02.861Z,101784.38
2023-05-04T05:14:33.150Z,101793.63
2023-05-04T05:17:15.842Z,101789.31
2023-05-04T05:19:47.037Z,101783.44
2023-05-04T05:22:17.340Z,101787.19
2023-05-04T05:24:51.126Z,101780.28
2023-05-04T05:27:24.500Z,101783.84
2023-05-04T05:29:54.606Z,101783.66
2023-05-04T05:32:24.872Z,101785.06
2023-05-04T05:34:55.121Z,101777.69
2023-05-04T05:37:26.065Z,101787.41
2023-05-04T05:39:56.284Z,101775.25
2023-05-04T05:42:28.928Z,101780.09
2023-05-04T05:44:59.251Z,101768.59
2023-05-04T05:47:29.625Z,101764.66
2023-05-04T05:49:59.988Z,101779.31
2023-05-04T05:52:30.361Z,101784.88
2023-05-04T05:55:02.461Z,101782.44
2023-05-04T05:57:35.446Z,101783.59
2023-05-04T06:00:06.434Z,101783.88
2023-05-04T06:02:44.090Z,101785.25
2023-05-04T06:05:14.171Z,101767.97
2023-05-04T06:07:44.153Z,101780.56
2023-05-04T06:10:16.763Z,101770.88
2023-05-04T06:12:49.363Z,101780.34
2023-05-04T06:15:20.178Z,101781.16
2023-05-04T06:17:50.468Z,101768.81
2023-05-04T06:20:21.025Z,101780.09
2023-05-04T06:22:51.489Z,101737.63
2023-05-04T06:25:22.340Z,101778.09
2023-05-04T06:27:55.292Z,101765.16
2023-05-04T06:30:25.558Z,101768.97
2023-05-04T06:32:55.671Z,101773.44
2023-05-04T06:35:26.068Z,101783.78
2023-05-04T06:37:56.612Z,101777.66
2023-05-04T06:40:28.002Z,101785.19
2023-05-04T06:43:00.896Z,101786.81
2023-05-04T06:45:31.432Z,101774.81
2023-05-04T06:48:01.593Z,101782.22
2023-05-04T06:50:33.401Z,101768.44
2023-05-04T06:53:09.230Z,101771.47
2023-05-04T06:55:39.883Z,101774.88
2023-05-04T06:58:12.917Z,101774.22
2023-05-04T07:00:47.716Z,101776.34
2023-05-04T07:03:18.114Z,101775.75
2023-05-04T07:05:50.898Z,101781.41
2023-05-04T07:08:23.366Z,101779.56
2023-05-04T07:10:53.617Z,101781.72
2023-05-04T07:13:26.688Z,101785.97
2023-05-04T07:15:58.951Z,101785.25
2023-05-04T07:18:29.208Z,101773.34
2023-05-04T07:21:16.081Z,101779.75
2023-05-04T07:23:49.707Z,101780.09
2023-05-04T07:26:19.761Z,101775.56
2023-05-04T07:28:52.782Z,101767.66
2023-05-04T07:31:23.354Z,101770.00
2023-05-04T07:33:54.245Z,101773.69
2023-05-04T07:36:26.769Z,101765.88
2023-05-04T07:38:57.610Z,101763.84
2023-05-04T07:41:27.856Z,101770.56
2023-05-04T07:44:00.569Z,101750.31
2023-05-04T07:46:31.220Z,101761.88
2023-05-04T07:49:01.594Z,101755.06
2023-05-04T07:51:31.718Z,101733.03
2023-05-04T07:54:01.963Z,101759.41
2023-05-04T07:56:32.151Z,101758.84
2023-05-04T07:59:05.025Z,101755.13
2023-05-04T08:01:35.159Z,101751.88
2023-05-04T08:04:05.311Z,101758.91
2023-05-04T08:06:39.490Z,101755.19
2023-05-04T08:09:09.579Z,101761.59
2023-05-04T08:11:39.756Z,101761.16
2023-05-04T08:14:12.481Z,101755.69
2023-05-04T08:16:43.089Z,101752.09
2023-05-04T08:19:13.153Z,101749.75
2023-05-04T08:21:43.692Z,101744.13
2023-05-04T08:24:14.000Z,101738.63
2023-05-04T08:26:52.577Z,101735.50
2023-05-04T08:29:32.872Z,101732.84
2023-05-04T08:32:03.656Z,101730.31
2023-05-04T08:34:34.004Z,101722.44
2023-05-04T08:37:06.839Z,101724.78
2023-05-04T08:39:39.432Z,101716.47
2023-05-04T08:42:17.349Z,101713.19
2023-05-04T08:44:50.050Z,101705.75
2023-05-04T08:47:20.251Z,101705.91
2023-05-04T08:49:55.553Z,101700.41
2023-05-04T08:52:27.343Z,101699.34
2023-05-04T08:54:58.821Z,101695.16
2023-05-04T08:57:35.703Z,101696.75
2023-05-04T09:00:12.201Z,101688.78
2023-05-04T09:02:42.974Z,101691.03
2023-05-04T09:05:14.485Z,101684.72
2023-05-04T09:07:44.651Z,101672.13
2023-05-04T09:10:15.048Z,101654.50
2023-05-04T09:12:45.146Z,101678.31
2023-05-04T09:15:22.131Z,101675.69
2023-05-04T09:18:01.357Z,101678.19
2023-05-04T09:20:32.739Z,101682.75
2023-05-04T09:23:26.397Z,101675.88
2023-05-04T09:25:58.757Z,101676.91
2023-05-04T09:28:38.838Z,101669.97
2023-05-04T09:31:12.112Z,101665.25
2023-05-04T09:33:44.930Z,101670.00
2023-05-04T09:36:17.895Z,101665.00
2023-05-04T09:38:50.426Z,101667.50
2023-05-04T09:41:21.124Z,101664.63
2023-05-04T09:43:52.024Z,101656.44
2023-05-04T09:46:25.944Z,101664.31
2023-05-04T09:48:57.180Z,101660.06
2023-05-04T09:51:30.321Z,101657.50
2023-05-04T09:54:07.396Z,101646.88
2023-05-04T09:56:49.266Z,101650.72
2023-05-04T09:59:22.860Z,101647.22
2023-05-04T10:01:58.691Z,101646.31
2023-05-04T10:04:31.067Z,101646.28
2023-05-04T10:07:03.384Z,101640.25
2023-05-04T10:09:34.627Z,101636.38
2023-05-04T10:12:06.754Z,101636.72
2023-05-04T10:14:38.306Z,101639.28
2023-05-04T10:17:28.555Z,101632.47
2023-05-04T10:20:21.079Z,101622.22
2023-05-04T10:23:24.174Z,101614.06
2023-05-04T10:26:20.922Z,101632.00
2023-05-04T10:29:07.064Z,101609.13
2023-05-04T10:31:42.360Z,101617.19
2023-05-04T10:34:27.360Z,101610.63
2023-05-04T10:36:58.048Z,101611.28
2023-05-04T10:39:29.709Z,101611.16
2023-05-04T10:42:02.350Z,101614.72
2023-05-04T10:44:33.852Z,101610.00
2023-05-04T10:47:06.894Z,101599.56
2023-05-04T10:49:39.508Z,101606.81
2023-05-04T10:52:16.499Z,101591.81
2023-05-04T10:54:47.525Z,101593.22
2023-05-04T10:57:17.748Z,101587.34
2023-05-04T10:59:58.984Z,101591.41
2023-05-04T11:02:32.569Z,101566.22
2023-05-04T11:05:09.557Z,101572.56
2023-05-04T11:07:40.885Z,101569.91
2023-05-04T11:10:24.592Z,101564.31
2023-05-04T11:13:05.568Z,101564.19
2023-05-04T11:15:47.046Z,101557.38
2023-05-04T11:18:19.053Z,101542.59
2023-05-04T11:20:56.291Z,101553.81
2023-05-04T11:23:32.826Z,101550.75
2023-05-04T11:26:12.601Z,101542.09
2023-05-04T11:28:43.241Z,101552.06
2023-05-04T11:31:17.252Z,101537.63
2023-05-04T11:33:48.359Z,101529.53
2023-05-04T11:36:21.401Z,101519.56
2023-05-04T11:38:52.719Z,101523.00
2023-05-04T11:41:29.922Z,101514.03
2023-05-04T11:44:04.566Z,101513.19
2023-05-04T11:46:35.946Z,101505.00
2023-05-04T11:49:12.414Z,101511.25
2023-05-04T11:51:45.357Z,101499.34
2023-05-04T11:54:25.251Z,101507.25
2023-05-04T11:56:56.535Z,101502.72
2023-05-04T11:59:26.673Z,101492.16
2023-05-04T12:01:56.975Z,101493.09
2023-05-04T12:04:33.444Z,101497.16
2023-05-04T12:07:09.668Z,101493.28
2023-05-04T12:10:10.291Z,101492.25
2023-05-04T12:12:41.018Z,101483.06
2023-05-04T12:15:13.623Z,101481.91
2023-05-04T12:17:44.339Z,101479.47
2023-05-04T12:20:26.652Z,101478.56
2023-05-04T12:22:59.845Z,101480.06
2023-05-04T12:25:29.983Z,101477.47
2023-05-04T12:28:00.675Z,101468.16
2023-05-04T12:30:30.883Z,101467.94
2023-05-04T12:33:05.786Z,101479.81
2023-05-04T12:35:37.175Z,101456.56
2023-05-04T12:38:09.926Z,101467.34
2023-05-04T12:40:44.304Z,101465.84
2023-05-04T12:43:20.965Z,101459.31
2023-05-04T12:45:51.198Z,101464.25
2023-05-04T12:48:21.990Z,101464.81
2023-05-04T12:50:53.023Z,101462.56
2023-05-04T12:53:28.088Z,101469.91
2023-05-04T12:56:00.192Z,101460.13
2023-05-04T12:58:31.302Z,101451.59
2023-05-04T13:01:04.590Z,101450.06
2023-05-04T13:03:38.338Z,101457.44
2023-05-04T13:06:08.640Z,101448.03
2023-05-04T13:08:41.739Z,101458.44
2023-05-04T13:11:14.750Z,101446.81
2023-05-04T13:13:49.436Z,101445.59
2023-05-04T13:16:20.214Z,101442.78
2023-05-04T13:18:50.223Z,101440.91
2023-05-04T13:21:22.129Z,101427.53
2023-05-04T13:23:57.724Z,101431.44
2023-05-04T13:26:29.896Z,101424.81
2023-05-04T13:28:59.906Z,101422.19
2023-05-04T13:31:30.026Z,101431.66
2023-05-04T13:34:00.297Z,101413.59
2023-05-04T13:36:34.474Z,101409.94
2023-05-04T13:39:07.315Z,101404.63
2023-05-04T13:41:38.363Z,101404.53
2023-05-04T13:44:09.274Z,101397.56
2023-05-04T13:46:39.744Z,101397.31
2023-05-04T13:49:16.308Z,101382.34
2023-05-04T13:51:47.249Z,101395.22
2023-05-04T13:54:21.267Z,101387.66
2023-05-04T13:56:52.332Z,101377.69
2023-05-04T13:59:28.880Z,101379.13
2023-05-04T14:01:59.471Z,101369.25
2023-05-04T14:04:39.766Z,101359.03
2023-05-04T14:07:10.762Z,101363.78
2023-05-04T14:09:43.831Z,101359.03
2023-05-04T14:12:18.475Z,101345.06
2023-05-04T14:14:48.619Z,101340.28
2023-05-04T14:17:20.537Z,101336.06
2023-05-04T14:19:52.175Z,101332.63
2023-05-04T14:22:23.257Z,101330.31
2023-05-04T14:25:02.515Z,101325.31
2023-05-04T14:27:34.638Z,101324.53
2023-05-04T14:30:05.280Z,101319.31
2023-05-04T14:32:35.758Z,101326.88
2023-05-04T14:35:09.076Z,101318.09
2023-05-04T14:37:41.165Z,101309.34
2023-05-04T14:40:24.828Z,101310.44
2023-05-04T14:42:54.850Z,101309.81
2023-05-04T14:45:27.554Z,101308.47
2023-05-04T14:47:58.014Z,101301.81
2023-05-04T14:50:31.103Z,101311.66
2023-05-04T14:53:01.146Z,101301.34
2023-05-04T14:55:41.728Z,101299.53
2023-05-04T14:58:22.152Z,101295.97
2023-05-04T15:01:02.558Z,101297.09
2023-05-04T15:03:32.815Z,101283.91
2023-05-04T15:06:05.543Z,101279.09
2023-05-04T15:08:36.200Z,101281.44
2023-05-04T15:11:10.087Z,101267.03
2023-05-04T15:13:40.197Z,101262.47
2023-05-04T15:16:10.310Z,101270.47
2023-05-04T15:18:42.264Z,101271.34
2023-05-04T15:21:14.314Z,101267.06
2023-05-04T15:23:44.330Z,101276.00
2023-05-04T15:26:17.324Z,101265.34
2023-05-04T15:28:47.451Z,101262.28
2023-05-04T15:31:20.709Z,101262.63
2023-05-04T15:33:51.405Z,101257.22
2023-05-04T15:36:24.571Z,101258.53
2023-05-04T15:38:54.536Z,101247.88
2023-05-04T15:41:28.942Z,101242.13
2023-05-04T15:44:03.246Z,101244.34
2023-05-04T15:46:36.858Z,101253.00
2023-05-04T15:49:09.542Z,101253.56
2023-05-04T15:51:39.575Z,101248.34
2023-05-04T15:54:13.353Z,101235.75
2023-05-04T15:56:46.312Z,101231.41
2023-05-04T15:59:30.110Z,101224.75
2023-05-04T16:02:00.288Z,101227.66
2023-05-04T16:04:31.021Z,101225.00
2023-05-04T16:07:01.179Z,101234.69
2023-05-04T16:09:31.573Z,101230.84
2023-05-04T16:12:05.369Z,101223.75
2023-05-04T16:14:36.331Z,101226.38
2023-05-04T16:17:07.558Z,101227.09
2023-05-04T16:19:39.071Z,101189.84
2023-05-04T16:22:09.427Z,101207.25
2023-05-04T16:24:39.580Z,101213.00
2023-05-04T16:27:12.316Z,101207.81
2023-05-04T16:29:46.715Z,101210.44
2023-05-04T16:32:16.997Z,101201.81
2023-05-04T16:34:53.140Z,101202.47
2023-05-04T16:37:23.400Z,101199.72
2023-05-04T16:39:53.711Z,101182.09
2023-05-04T16:42:26.537Z,101188.06
2023-05-04T16:45:06.280Z,101192.97
2023-05-04T16:47:36.667Z,101188.50
2023-05-04T16:50:08.845Z,101167.34
2023-05-04T16:52:40.201Z,101182.50
2023-05-04T16:55:13.087Z,101170.19
2023-05-04T16:57:46.199Z,101169.19
2023-05-04T17:00:24.362Z,101172.19
2023-05-04T17:02:55.917Z,101169.44
2023-05-04T17:05:28.453Z,101161.34
2023-05-04T17:08:00.429Z,101169.44
2023-05-04T17:10:33.148Z,101144.28
2023-05-04T17:13:08.434Z,101173.09
2023-05-04T17:15:39.545Z,101166.78
2023-05-04T17:18:09.794Z,101159.34
2023-05-04T17:20:40.023Z,101170.53
2023-05-04T17:23:10.419Z,101168.53
2023-05-04T17:25:43.464Z,101174.28
2023-05-04T17:28:18.363Z,101173.84
2023-05-04T17:31:23.992Z,101176.03
2023-05-04T17:33:52.410Z,101178.25
2023-05-04T17:36:23.370Z,101160.50
2023-05-04T17:38:53.459Z,101178.69
2023-05-04T17:41:25.024Z,101182.78
2023-05-04T17:43:57.939Z,101184.06
2023-05-04T17:46:32.654Z,101187.03
2023-05-04T17:49:03.484Z,101189.50
2023-05-04T17:51:33.604Z,101176.38
2023-05-04T17:54:11.016Z,101187.97
2023-05-04T17:56:43.245Z,101183.31
2023-05-04T17:59:23.126Z,101166.88
2023-05-04T18:01:53.551Z,101182.72
2023-05-04T18:04:23.573Z,101184.81
2023-05-04T18:06:54.484Z,101177.59
2023-05-04T18:09:30.820Z,101186.66
2023-05-04T18:12:03.569Z,101189.50
2023-05-04T18:14:36.204Z,101182.16
2023-05-04T18:17:08.289Z,101191.47
2023-05-04T18:19:40.478Z,101193.53
2023-05-04T18:22:12.678Z,101198.00
2023-05-04T18:24:43.334Z,101194.09
2023-05-04T18:27:13.673Z,101196.94
2023-05-04T18:29:50.154Z,101193.00
2023-05-04T18:32:20.733Z,101189.84
2023-05-04T18:34:54.990Z,101194.47
2023-05-04T18:37:25.451Z,101193.47
2023-05-04T18:39:55.666Z,101201.84
2023-05-04T18:42:27.600Z,101205.56
2023-05-04T18:45:01.141Z,101205.84
2023-05-04T18:47:33.496Z,101203.53
2023-05-04T18:50:07.697Z,101206.47
2023-05-04T18:52:40.330Z,101205.75
2023-05-04T18:55:12.182Z,101215.66
2023-05-04T18:57:42.378Z,101213.38
2023-05-04T19:00:16.836Z,101213.88
2023-05-04T19:02:46.957Z,101208.03
2023-05-04T19:05:17.306Z,101213.91
2023-05-04T19:07:48.508Z,101205.66
2023-05-04T19:10:18.961Z,101203.22
2023-05-04T19:12:49.174Z,101213.25
2023-05-04T19:15:23.340Z,101214.38
2023-05-04T19:17:54.284Z,101217.94
2023-05-04T19:20:24.349Z,101214.28
2023-05-04T19:22:54.639Z,101214.75
2023-05-04T19:28:08.123Z,101213.19
2023-05-04T19:30:41.961Z,101205.84
2023-05-04T19:33:19.811Z,101205.69
2023-05-04T19:35:50.009Z,101209.75
2023-05-04T19:38:20.095Z,101218.84
2023-05-04T19:40:50.217Z,101216.97
2023-05-04T19:43:22.616Z,101215.06
2023-05-04T19:45:57.360Z,101215.84
2023-05-04T19:48:29.742Z,101212.13
2023-05-04T19:51:00.051Z,101219.34
2023-05-04T19:53:31.299Z,101223.28
2023-05-04T19:56:01.477Z,101213.22
2023-05-04T19:58:32.234Z,101223.66
2023-05-04T20:01:06.028Z,101205.50
2023-05-04T20:03:36.141Z,101209.53
2023-05-04T20:06:09.353Z,101195.19
2023-05-04T20:08:39.575Z,101194.28
2023-05-04T20:11:09.907Z,101207.25
2023-05-04T20:13:40.137Z,101206.97
2023-05-04T20:16:13.272Z,101202.13
2023-05-04T20:18:43.427Z,101203.50
2023-05-04T20:21:13.518Z,101199.97
2023-05-04T20:23:45.818Z,101212.38
2023-05-04T20:26:16.662Z,101208.53
2023-05-04T20:28:49.015Z,101209.16
2023-05-04T20:31:21.996Z,101205.31
2023-05-04T20:33:54.694Z,101202.53
2023-05-04T20:36:27.512Z,101203.16
2023-05-04T20:38:58.533Z,101199.34
2023-05-04T20:41:28.903Z,101198.03
2023-05-04T20:43:59.455Z,101192.44
2023-05-04T20:46:32.257Z,101185.13
2023-05-04T20:49:03.076Z,101195.00
2023-05-04T20:51:33.700Z,101198.16
2023-05-04T20:54:03.891Z,101187.63
2023-05-04T20:56:33.968Z,101187.97
2023-05-04T20:59:04.064Z,101186.97
2023-05-04T21:01:37.450Z,101185.63
2023-05-04T21:04:08.528Z,101187.00
2023-05-04T21:06:40.220Z,101181.56
2023-05-04T21:09:12.910Z,101179.75
2023-05-04T21:11:43.001Z,101180.25
2023-05-04T21:14:13.815Z,101176.56
2023-05-04T21:16:46.642Z,101174.63
2023-05-04T21:19:16.830Z,101178.94
2023-05-04T21:21:47.183Z,101178.53
2023-05-04T21:24:17.663Z,101177.38
2023-05-04T21:26:48.666Z,101182.16
2023-05-04T21:29:18.750Z,101173.53
2023-05-04T21:31:51.670Z,101184.25
2023-05-04T21:34:21.813Z,101176.41
2023-05-04T21:36:51.803Z,101178.94
2023-05-04T21:39:23.224Z,101173.59
2023-05-04T21:41:53.397Z,101175.09
2023-05-04T21:44:24.930Z,101180.00
2023-05-04T21:46:58.187Z,101185.84
2023-05-04T21:49:28.205Z,101176.91
2023-05-04T21:51:58.313Z,101172.34
2023-05-04T21:54:28.499Z,101177.91
2023-05-04T21:57:04.291Z,101171.63
2023-05-04T21:59:34.692Z,101160.56
2023-05-04T22:02:09.436Z,101169.44
2023-05-04T22:04:40.074Z,101159.78
2023-05-04T22:07:10.137Z,101163.69
2023-05-04T22:09:40.380Z,101158.38
2023-05-04T22:12:10.789Z,101149.63
2023-05-04T22:14:42.486Z,101141.78
2023-05-04T22:17:16.078Z,101159.44
2023-05-04T22:19:52.291Z,101159.88
2023-05-04T22:22:22.962Z,101167.19
2023-05-04T22:24:53.285Z,101152.63
2023-05-04T22:27:23.473Z,101144.78
2023-05-04T22:29:55.875Z,101129.81
2023-05-04T22:32:28.549Z,101159.94
2023-05-04T22:35:00.208Z,101160.44
2023-05-04T22:37:32.559Z,101158.63
2023-05-04T22:40:02.941Z,101155.84
2023-05-04T22:42:34.080Z,101154.66
2023-05-04T22:45:04.299Z,101154.22
2023-05-04T22:47:36.978Z,101161.50
2023-05-04T22:50:08.131Z,101157.97
2023-05-04T22:52:40.864Z,101155.72
2023-05-04T22:55:12.238Z,101147.88
2023-05-04T22:57:42.472Z,101147.59
2023-05-04T23:00:16.620Z,101148.06
2023-05-04T23:02:49.096Z,101148.38
2023-05-04T23:05:19.476Z,101159.81
2023-05-04T23:07:49.552Z,101157.00
2023-05-04T23:10:19.838Z,101148.25
2023-05-04T23:12:50.115Z,101143.78
2023-05-04T23:15:20.959Z,101139.03
2023-05-04T23:17:53.789Z,101136.25
2023-05-04T23:20:24.254Z,101137.59
2023-05-04T23:22:54.463Z,101130.63
2023-05-04T23:25:24.669Z,101141.16
2023-05-04T23:28:12.494Z,101139.97
2023-05-04T23:30:42.689Z,101137.31
2023-05-04T23:33:16.386Z,101138.66
2023-05-04T23:35:46.555Z,101137.63
2023-05-04T23:38:16.528Z,101135.41
2023-05-04T23:40:46.883Z,101138.06
2023-05-04T23:43:17.053Z,101140.59
2023-05-04T23:45:48.523Z,101135.25
2023-05-04T23:48:28.882Z,101129.03
2023-05-04T23:51:04.234Z,101136.28
2023-05-04T23:53:39.390Z,101120.13
2023-05-04T23:56:09.942Z,101127.84
2023-05-04T23:58:39.858Z,101127.38
